sensor_id;sensor_type;location;lat;lon;timestamp;P1;durP1;ratioP1;P2;durP2;ratioP2
43809;SDS011;29440;48.208;11.162;2024-03-22T00:01:16;28.38;;;14.75;;
43809;SDS011;29440;48.208;11.162;2024-03-22T00:03:41;25.35;;;14.18;;
43809;SDS011;29440;48.208;11.162;2024-03-22T00:06:07;23.50;;;13.65;;
43809;SDS011;29440;48.208;11.162;2024-03-22T00:08:33;25.38;;;14.57;;
43809;SDS011;29440;48.208;11.162;2024-03-22T00:10:58;26.90;;;15.95;;
43809;SDS011;29440;48.208;11.162;2024-03-22T00:13:24;26.27;;;14.77;;
43809;SDS011;29440;48.208;11.162;2024-03-22T00:15:49;23.92;;;14.27;;
43809;SDS011;29440;48.208;11.162;2024-03-22T00:18:15;21.55;;;13.35;;
43809;SDS011;29440;48.208;11.162;2024-03-22T00:20:41;26.98;;;14.10;;
43809;SDS011;29440;48.208;11.162;2024-03-22T00:23:06;26.92;;;13.90;;
43809;SDS011;29440;48.208;11.162;2024-03-22T00:25:32;24.95;;;14.13;;
43809;SDS011;29440;48.208;11.162;2024-03-22T00:27:57;20.90;;;13.00;;
43809;SDS011;29440;48.208;11.162;2024-03-22T00:30:23;23.48;;;12.68;;
43809;SDS011;29440;48.208;11.162;2024-03-22T00:32:48;27.38;;;13.13;;
43809;SDS011;29440;48.208;11.162;2024-03-22T00:35:14;23.85;;;12.43;;
43809;SDS011;29440;48.208;11.162;2024-03-22T00:37:40;19.65;;;11.98;;
43809;SDS011;29440;48.208;11.162;2024-03-22T00:40:05;21.35;;;12.07;;
43809;SDS011;29440;48.208;11.162;2024-03-22T00:42:31;22.00;;;12.52;;
43809;SDS011;29440;48.208;11.162;2024-03-22T00:44:57;26.13;;;12.32;;
43809;SDS011;29440;48.208;11.162;2024-03-22T00:47:23;19.48;;;11.48;;
43809;SDS011;29440;48.208;11.162;2024-03-22T00:49:48;19.83;;;11.93;;
43809;SDS011;29440;48.208;11.162;2024-03-22T00:52:14;24.17;;;12.63;;
43809;SDS011;29440;48.208;11.162;2024-03-22T00:54:40;19.65;;;11.43;;
43809;SDS011;29440;48.208;11.162;2024-03-22T00:57:06;19.77;;;11.98;;
43809;SDS011;29440;48.208;11.162;2024-03-22T00:59:31;19.02;;;10.73;;
43809;SDS011;29440;48.208;11.162;2024-03-22T01:01:57;21.23;;;12.18;;
43809;SDS011;29440;48.208;11.162;2024-03-22T01:04:23;23.55;;;11.18;;
43809;SDS011;29440;48.208;11.162;2024-03-22T01:06:48;22.92;;;11.10;;
43809;SDS011;29440;48.208;11.162;2024-03-22T01:09:14;22.50;;;10.77;;
43809;SDS011;29440;48.208;11.162;2024-03-22T01:11:40;18.67;;;9.75;;
43809;SDS011;29440;48.208;11.162;2024-03-22T01:14:05;22.50;;;10.70;;
43809;SDS011;29440;48.208;11.162;2024-03-22T01:16:31;19.15;;;10.98;;
43809;SDS011;29440;48.208;11.162;2024-03-22T01:18:57;21.80;;;11.45;;
43809;SDS011;29440;48.208;11.162;2024-03-22T01:21:22;17.58;;;10.65;;
43809;SDS011;29440;48.208;11.162;2024-03-22T01:23:51;17.80;;;10.48;;
43809;SDS011;29440;48.208;11.162;2024-03-22T01:26:17;20.90;;;11.45;;
43809;SDS011;29440;48.208;11.162;2024-03-22T01:28:43;23.48;;;11.75;;
43809;SDS011;29440;48.208;11.162;2024-03-22T01:31:08;20.67;;;11.15;;
43809;SDS011;29440;48.208;11.162;2024-03-22T01:33:34;19.23;;;10.95;;
43809;SDS011;29440;48.208;11.162;2024-03-22T01:35:59;21.15;;;11.48;;
43809;SDS011;29440;48.208;11.162;2024-03-22T01:38:25;21.55;;;11.75;;
43809;SDS011;29440;48.208;11.162;2024-03-22T01:40:50;23.05;;;12.38;;
43809;SDS011;29440;48.208;11.162;2024-03-22T01:43:16;25.13;;;13.90;;
43809;SDS011;29440;48.208;11.162;2024-03-22T01:45:41;20.08;;;11.73;;
43809;SDS011;29440;48.208;11.162;2024-03-22T01:48:07;23.98;;;12.68;;
43809;SDS011;29440;48.208;11.162;2024-03-22T01:50:33;26.10;;;13.88;;
43809;SDS011;29440;48.208;11.162;2024-03-22T01:52:59;25.60;;;12.90;;
43809;SDS011;29440;48.208;11.162;2024-03-22T01:55:26;24.70;;;12.68;;
43809;SDS011;29440;48.208;11.162;2024-03-22T01:57:53;24.45;;;12.23;;
43809;SDS011;29440;48.208;11.162;2024-03-22T02:00:20;21.23;;;11.38;;
43809;SDS011;29440;48.208;11.162;2024-03-22T02:02:46;21.60;;;11.38;;
43809;SDS011;29440;48.208;11.162;2024-03-22T02:05:16;28.17;;;13.95;;
43809;SDS011;29440;48.208;11.162;2024-03-22T02:10:12;31.77;;;15.65;;
43809;SDS011;29440;48.208;11.162;2024-03-22T02:12:38;30.75;;;15.90;;
43809;SDS011;29440;48.208;11.162;2024-03-22T02:15:05;37.40;;;17.33;;
43809;SDS011;29440;48.208;11.162;2024-03-22T02:17:32;32.55;;;16.77;;
43809;SDS011;29440;48.208;11.162;2024-03-22T02:19:57;27.88;;;15.77;;
43809;SDS011;29440;48.208;11.162;2024-03-22T02:22:23;27.15;;;14.60;;
43809;SDS011;29440;48.208;11.162;2024-03-22T02:24:49;24.52;;;13.35;;
43809;SDS011;29440;48.208;11.162;2024-03-22T02:27:14;23.35;;;12.35;;
43809;SDS011;29440;48.208;11.162;2024-03-22T02:29:40;22.75;;;11.20;;
43809;SDS011;29440;48.208;11.162;2024-03-22T02:32:06;22.48;;;12.38;;
43809;SDS011;29440;48.208;11.162;2024-03-22T02:34:31;28.88;;;13.10;;
43809;SDS011;29440;48.208;11.162;2024-03-22T02:36:57;26.40;;;14.35;;
43809;SDS011;29440;48.208;11.162;2024-03-22T02:39:22;22.25;;;11.93;;
43809;SDS011;29440;48.208;11.162;2024-03-22T02:41:50;22.50;;;12.02;;
43809;SDS011;29440;48.208;11.162;2024-03-22T02:44:15;27.73;;;14.15;;
43809;SDS011;29440;48.208;11.162;2024-03-22T02:46:41;29.02;;;13.73;;
43809;SDS011;29440;48.208;11.162;2024-03-22T02:49:07;25.25;;;13.98;;
43809;SDS011;29440;48.208;11.162;2024-03-22T02:51:32;29.55;;;14.65;;
43809;SDS011;29440;48.208;11.162;2024-03-22T02:53:58;36.72;;;15.05;;
43809;SDS011;29440;48.208;11.162;2024-03-22T02:56:23;26.50;;;15.73;;
43809;SDS011;29440;48.208;11.162;2024-03-22T02:58:49;28.58;;;15.40;;
43809;SDS011;29440;48.208;11.162;2024-03-22T03:01:15;29.60;;;13.75;;
43809;SDS011;29440;48.208;11.162;2024-03-22T03:03:40;20.23;;;11.68;;
43809;SDS011;29440;48.208;11.162;2024-03-22T03:06:06;27.02;;;12.73;;
43809;SDS011;29440;48.208;11.162;2024-03-22T03:08:31;20.27;;;10.60;;
43809;SDS011;29440;48.208;11.162;2024-03-22T03:10:57;20.83;;;11.68;;
43809;SDS011;29440;48.208;11.162;2024-03-22T03:13:22;27.40;;;13.80;;
43809;SDS011;29440;48.208;11.162;2024-03-22T03:15:48;29.30;;;14.43;;
43809;SDS011;29440;48.208;11.162;2024-03-22T03:18:13;26.17;;;14.68;;
43809;SDS011;29440;48.208;11.162;2024-03-22T03:20:39;32.28;;;15.15;;
43809;SDS011;29440;48.208;11.162;2024-03-22T03:23:04;31.52;;;15.73;;
43809;SDS011;29440;48.208;11.162;2024-03-22T03:25:30;33.15;;;15.50;;
43809;SDS011;29440;48.208;11.162;2024-03-22T03:27:55;30.45;;;14.02;;
43809;SDS011;29440;48.208;11.162;2024-03-22T03:30:21;28.50;;;13.15;;
43809;SDS011;29440;48.208;11.162;2024-03-22T03:32:47;23.80;;;13.05;;
43809;SDS011;29440;48.208;11.162;2024-03-22T03:35:12;29.63;;;16.10;;
43809;SDS011;29440;48.208;11.162;2024-03-22T03:37:38;33.00;;;15.57;;
43809;SDS011;29440;48.208;11.162;2024-03-22T03:40:03;34.78;;;17.20;;
43809;SDS011;29440;48.208;11.162;2024-03-22T03:42:29;38.83;;;17.75;;
43809;SDS011;29440;48.208;11.162;2024-03-22T03:44:55;37.90;;;19.00;;
43809;SDS011;29440;48.208;11.162;2024-03-22T03:47:20;36.03;;;17.83;;
43809;SDS011;29440;48.208;11.162;2024-03-22T03:49:46;37.72;;;18.65;;
43809;SDS011;29440;48.208;11.162;2024-03-22T03:52:12;39.17;;;18.58;;
43809;SDS011;29440;48.208;11.162;2024-03-22T03:54:38;41.20;;;18.98;;
43809;SDS011;29440;48.208;11.162;2024-03-22T03:57:04;37.00;;;19.45;;
43809;SDS011;29440;48.208;11.162;2024-03-22T03:59:30;35.50;;;18.48;;
43809;SDS011;29440;48.208;11.162;2024-03-22T04:01:55;41.95;;;18.38;;
43809;SDS011;29440;48.208;11.162;2024-03-22T04:04:21;39.17;;;19.23;;
43809;SDS011;29440;48.208;11.162;2024-03-22T04:06:46;37.92;;;18.20;;
43809;SDS011;29440;48.208;11.162;2024-03-22T04:09:12;38.15;;;18.83;;
43809;SDS011;29440;48.208;11.162;2024-03-22T04:11:37;37.45;;;18.67;;
43809;SDS011;29440;48.208;11.162;2024-03-22T04:14:03;36.75;;;19.23;;
43809;SDS011;29440;48.208;11.162;2024-03-22T04:16:30;42.70;;;20.05;;
43809;SDS011;29440;48.208;11.162;2024-03-22T04:18:56;38.47;;;18.92;;
43809;SDS011;29440;48.208;11.162;2024-03-22T04:21:21;41.53;;;19.40;;
43809;SDS011;29440;48.208;11.162;2024-03-22T04:23:47;41.08;;;20.00;;
43809;SDS011;29440;48.208;11.162;2024-03-22T04:26:12;39.63;;;18.15;;
43809;SDS011;29440;48.208;11.162;2024-03-22T04:28:38;38.30;;;20.33;;
43809;SDS011;29440;48.208;11.162;2024-03-22T04:31:04;42.13;;;18.73;;
43809;SDS011;29440;48.208;11.162;2024-03-22T04:33:32;41.53;;;17.98;;
43809;SDS011;29440;48.208;11.162;2024-03-22T04:35:58;39.20;;;19.20;;
43809;SDS011;29440;48.208;11.162;2024-03-22T04:38:25;38.80;;;17.10;;
43809;SDS011;29440;48.208;11.162;2024-03-22T04:40:51;32.83;;;17.27;;
43809;SDS011;29440;48.208;11.162;2024-03-22T04:43:17;33.08;;;17.42;;
43809;SDS011;29440;48.208;11.162;2024-03-22T04:45:43;35.55;;;18.30;;
43809;SDS011;29440;48.208;11.162;2024-03-22T04:48:09;34.53;;;16.55;;
43809;SDS011;29440;48.208;11.162;2024-03-22T04:50:34;32.80;;;16.33;;
43809;SDS011;29440;48.208;11.162;2024-03-22T04:53:01;31.73;;;16.65;;
43809;SDS011;29440;48.208;11.162;2024-03-22T04:55:26;33.95;;;16.88;;
43809;SDS011;29440;48.208;11.162;2024-03-22T04:57:52;33.58;;;15.38;;
43809;SDS011;29440;48.208;11.162;2024-03-22T05:00:18;33.47;;;17.02;;
43809;SDS011;29440;48.208;11.162;2024-03-22T05:02:45;33.17;;;16.92;;
43809;SDS011;29440;48.208;11.162;2024-03-22T05:05:11;35.67;;;17.00;;
43809;SDS011;29440;48.208;11.162;2024-03-22T05:07:37;35.28;;;17.00;;
43809;SDS011;29440;48.208;11.162;2024-03-22T05:10:03;32.30;;;16.70;;
43809;SDS011;29440;48.208;11.162;2024-03-22T05:12:29;30.23;;;16.45;;
43809;SDS011;29440;48.208;11.162;2024-03-22T05:14:54;28.20;;;15.98;;
43809;SDS011;29440;48.208;11.162;2024-03-22T05:17:20;34.70;;;16.13;;
43809;SDS011;29440;48.208;11.162;2024-03-22T05:19:46;32.35;;;16.50;;
43809;SDS011;29440;48.208;11.162;2024-03-22T05:22:12;30.10;;;16.13;;
43809;SDS011;29440;48.208;11.162;2024-03-22T05:24:37;33.13;;;16.55;;
43809;SDS011;29440;48.208;11.162;2024-03-22T05:27:03;31.23;;;16.38;;
43809;SDS011;29440;48.208;11.162;2024-03-22T05:29:29;31.77;;;15.88;;
43809;SDS011;29440;48.208;11.162;2024-03-22T05:31:54;30.20;;;15.60;;
43809;SDS011;29440;48.208;11.162;2024-03-22T05:34:20;29.60;;;13.23;;
43809;SDS011;29440;48.208;11.162;2024-03-22T05:36:45;23.67;;;12.82;;
43809;SDS011;29440;48.208;11.162;2024-03-22T05:39:11;26.35;;;12.23;;
43809;SDS011;29440;48.208;11.162;2024-03-22T05:41:37;22.77;;;11.75;;
43809;SDS011;29440;48.208;11.162;2024-03-22T05:44:03;20.40;;;11.02;;
43809;SDS011;29440;48.208;11.162;2024-03-22T05:46:29;23.05;;;12.02;;
43809;SDS011;29440;48.208;11.162;2024-03-22T05:48:55;24.05;;;11.15;;
43809;SDS011;29440;48.208;11.162;2024-03-22T05:51:22;21.40;;;10.52;;
43809;SDS011;29440;48.208;11.162;2024-03-22T05:53:48;20.63;;;11.80;;
43809;SDS011;29440;48.208;11.162;2024-03-22T05:56:13;18.95;;;11.40;;
43809;SDS011;29440;48.208;11.162;2024-03-22T05:58:39;21.52;;;11.93;;
43809;SDS011;29440;48.208;11.162;2024-03-22T06:01:05;17.92;;;10.88;;
43809;SDS011;29440;48.208;11.162;2024-03-22T06:03:31;20.40;;;10.85;;
43809;SDS011;29440;48.208;11.162;2024-03-22T06:05:57;23.38;;;12.82;;
43809;SDS011;29440;48.208;11.162;2024-03-22T06:08:26;22.83;;;11.15;;
43809;SDS011;29440;48.208;11.162;2024-03-22T06:10:52;25.30;;;11.48;;
43809;SDS011;29440;48.208;11.162;2024-03-22T06:13:19;16.83;;;10.07;;
43809;SDS011;29440;48.208;11.162;2024-03-22T06:15:45;16.00;;;9.48;;
43809;SDS011;29440;48.208;11.162;2024-03-22T06:18:13;18.52;;;9.93;;
43809;SDS011;29440;48.208;11.162;2024-03-22T06:20:39;15.65;;;9.60;;
43809;SDS011;29440;48.208;11.162;2024-03-22T06:23:04;18.30;;;9.68;;
43809;SDS011;29440;48.208;11.162;2024-03-22T06:25:30;15.68;;;9.25;;
43809;SDS011;29440;48.208;11.162;2024-03-22T06:27:57;19.42;;;11.90;;
43809;SDS011;29440;48.208;11.162;2024-03-22T06:30:22;26.55;;;12.18;;
43809;SDS011;29440;48.208;11.162;2024-03-22T06:32:48;20.73;;;9.95;;
43809;SDS011;29440;48.208;11.162;2024-03-22T06:35:13;16.63;;;10.18;;
43809;SDS011;29440;48.208;11.162;2024-03-22T06:37:45;16.25;;;9.45;;
43809;SDS011;29440;48.208;11.162;2024-03-22T06:40:11;13.82;;;9.55;;
43809;SDS011;29440;48.208;11.162;2024-03-22T06:42:37;14.88;;;9.80;;
43809;SDS011;29440;48.208;11.162;2024-03-22T06:45:03;13.18;;;9.32;;
43809;SDS011;29440;48.208;11.162;2024-03-22T06:47:28;15.93;;;9.95;;
43809;SDS011;29440;48.208;11.162;2024-03-22T06:49:54;14.35;;;9.50;;
43809;SDS011;29440;48.208;11.162;2024-03-22T06:52:20;13.57;;;8.95;;
43809;SDS011;29440;48.208;11.162;2024-03-22T06:54:46;15.77;;;10.05;;
43809;SDS011;29440;48.208;11.162;2024-03-22T06:57:12;13.18;;;9.00;;
43809;SDS011;29440;48.208;11.162;2024-03-22T06:59:37;15.63;;;9.25;;
43809;SDS011;29440;48.208;11.162;2024-03-22T07:02:03;13.65;;;9.07;;
43809;SDS011;29440;48.208;11.162;2024-03-22T07:04:28;12.93;;;8.80;;
43809;SDS011;29440;48.208;11.162;2024-03-22T07:06:54;14.30;;;9.32;;
43809;SDS011;29440;48.208;11.162;2024-03-22T07:11:51;13.90;;;9.50;;
43809;SDS011;29440;48.208;11.162;2024-03-22T07:14:18;15.00;;;9.27;;
43809;SDS011;29440;48.208;11.162;2024-03-22T07:16:44;10.95;;;8.55;;
43809;SDS011;29440;48.208;11.162;2024-03-22T07:19:09;10.95;;;8.32;;
43809;SDS011;29440;48.208;11.162;2024-03-22T07:21:35;13.68;;;8.95;;
43809;SDS011;29440;48.208;11.162;2024-03-22T07:24:01;10.27;;;8.15;;
43809;SDS011;29440;48.208;11.162;2024-03-22T07:26:26;12.90;;;8.65;;
43809;SDS011;29440;48.208;11.162;2024-03-22T07:28:52;11.25;;;9.10;;
43809;SDS011;29440;48.208;11.162;2024-03-22T07:31:17;12.10;;;9.00;;
43809;SDS011;29440;48.208;11.162;2024-03-22T07:33:43;14.50;;;8.82;;
43809;SDS011;29440;48.208;11.162;2024-03-22T07:36:08;10.23;;;7.10;;
43809;SDS011;29440;48.208;11.162;2024-03-22T07:38:34;9.20;;;7.43;;
43809;SDS011;29440;48.208;11.162;2024-03-22T07:41:00;9.57;;;5.18;;
43809;SDS011;29440;48.208;11.162;2024-03-22T07:43:25;7.90;;;5.32;;
43809;SDS011;29440;48.208;11.162;2024-03-22T07:45:51;7.45;;;4.38;;
43809;SDS011;29440;48.208;11.162;2024-03-22T07:48:16;8.68;;;5.15;;
43809;SDS011;29440;48.208;11.162;2024-03-22T07:50:42;9.07;;;5.15;;
43809;SDS011;29440;48.208;11.162;2024-03-22T07:53:08;8.43;;;4.68;;
43809;SDS011;29440;48.208;11.162;2024-03-22T07:55:34;5.85;;;4.78;;
43809;SDS011;29440;48.208;11.162;2024-03-22T07:58:00;6.88;;;4.78;;
43809;SDS011;29440;48.208;11.162;2024-03-22T08:00:26;9.00;;;5.00;;
43809;SDS011;29440;48.208;11.162;2024-03-22T08:02:51;7.45;;;4.55;;
43809;SDS011;29440;48.208;11.162;2024-03-22T08:05:17;8.13;;;4.47;;
43809;SDS011;29440;48.208;11.162;2024-03-22T08:07:59;7.10;;;4.38;;
43809;SDS011;29440;48.208;11.162;2024-03-22T08:10:24;4.90;;;3.85;;
43809;SDS011;29440;48.208;11.162;2024-03-22T08:12:50;6.32;;;4.07;;
43809;SDS011;29440;48.208;11.162;2024-03-22T08:15:17;4.57;;;3.47;;
43809;SDS011;29440;48.208;11.162;2024-03-22T08:17:42;7.85;;;3.70;;
43809;SDS011;29440;48.208;11.162;2024-03-22T08:20:08;5.95;;;3.10;;
43809;SDS011;29440;48.208;11.162;2024-03-22T08:22:34;5.53;;;3.60;;
43809;SDS011;29440;48.208;11.162;2024-03-22T08:24:59;5.15;;;3.65;;
43809;SDS011;29440;48.208;11.162;2024-03-22T08:27:27;3.78;;;3.22;;
43809;SDS011;29440;48.208;11.162;2024-03-22T08:29:52;6.32;;;3.92;;
43809;SDS011;29440;48.208;11.162;2024-03-22T08:32:18;6.38;;;3.55;;
43809;SDS011;29440;48.208;11.162;2024-03-22T08:34:43;7.28;;;3.45;;
43809;SDS011;29440;48.208;11.162;2024-03-22T08:37:09;4.03;;;3.42;;
43809;SDS011;29440;48.208;11.162;2024-03-22T08:39:34;8.00;;;3.67;;
43809;SDS011;29440;48.208;11.162;2024-03-22T08:42:00;4.20;;;2.65;;
43809;SDS011;29440;48.208;11.162;2024-03-22T08:44:26;5.30;;;3.65;;
43809;SDS011;29440;48.208;11.162;2024-03-22T08:46:52;6.07;;;2.88;;
43809;SDS011;29440;48.208;11.162;2024-03-22T08:49:17;5.38;;;2.78;;
43809;SDS011;29440;48.208;11.162;2024-03-22T08:51:44;3.78;;;2.80;;
43809;SDS011;29440;48.208;11.162;2024-03-22T08:54:11;4.70;;;2.80;;
43809;SDS011;29440;48.208;11.162;2024-03-22T08:56:36;7.43;;;3.50;;
43809;SDS011;29440;48.208;11.162;2024-03-22T08:59:02;4.38;;;3.05;;
43809;SDS011;29440;48.208;11.162;2024-03-22T09:01:27;4.53;;;2.78;;
43809;SDS011;29440;48.208;11.162;2024-03-22T09:03:53;3.55;;;2.70;;
43809;SDS011;29440;48.208;11.162;2024-03-22T09:06:18;4.50;;;3.00;;
43809;SDS011;29440;48.208;11.162;2024-03-22T09:08:44;4.38;;;2.80;;
43809;SDS011;29440;48.208;11.162;2024-03-22T09:11:10;5.72;;;3.47;;
43809;SDS011;29440;48.208;11.162;2024-03-22T09:13:36;4.97;;;2.53;;
43809;SDS011;29440;48.208;11.162;2024-03-22T09:16:02;3.33;;;2.72;;
43809;SDS011;29440;48.208;11.162;2024-03-22T09:21:21;5.68;;;2.97;;
43809;SDS011;29440;48.208;11.162;2024-03-22T09:23:46;3.78;;;3.00;;
43809;SDS011;29440;48.208;11.162;2024-03-22T09:26:12;4.95;;;2.97;;
43809;SDS011;29440;48.208;11.162;2024-03-22T09:28:37;6.05;;;3.08;;
43809;SDS011;29440;48.208;11.162;2024-03-22T09:31:04;5.00;;;2.70;;
43809;SDS011;29440;48.208;11.162;2024-03-22T09:33:30;4.90;;;3.00;;
43809;SDS011;29440;48.208;11.162;2024-03-22T09:35:57;5.43;;;3.90;;
43809;SDS011;29440;48.208;11.162;2024-03-22T09:38:23;5.07;;;3.00;;
43809;SDS011;29440;48.208;11.162;2024-03-22T09:40:49;4.63;;;2.88;;
43809;SDS011;29440;48.208;11.162;2024-03-22T09:43:19;6.10;;;3.50;;
43809;SDS011;29440;48.208;11.162;2024-03-22T09:45:47;9.82;;;3.58;;
43809;SDS011;29440;48.208;11.162;2024-03-22T09:48:15;6.95;;;3.47;;
43809;SDS011;29440;48.208;11.162;2024-03-22T09:50:42;6.90;;;3.63;;
43809;SDS011;29440;48.208;11.162;2024-03-22T09:53:10;4.40;;;3.58;;
43809;SDS011;29440;48.208;11.162;2024-03-22T09:55:38;5.97;;;3.80;;
43809;SDS011;29440;48.208;11.162;2024-03-22T09:58:08;4.78;;;3.28;;
43809;SDS011;29440;48.208;11.162;2024-03-22T10:00:34;7.80;;;4.10;;
43809;SDS011;29440;48.208;11.162;2024-03-22T10:03:00;7.28;;;3.83;;
43809;SDS011;29440;48.208;11.162;2024-03-22T10:05:27;7.45;;;3.78;;
43809;SDS011;29440;48.208;11.162;2024-03-22T10:07:53;7.18;;;3.83;;
43809;SDS011;29440;48.208;11.162;2024-03-22T10:10:19;10.20;;;3.33;;
43809;SDS011;29440;48.208;11.162;2024-03-22T10:12:44;5.15;;;3.33;;
43809;SDS011;29440;48.208;11.162;2024-03-22T10:15:10;6.13;;;3.65;;
43809;SDS011;29440;48.208;11.162;2024-03-22T10:17:37;5.70;;;3.25;;
43809;SDS011;29440;48.208;11.162;2024-03-22T10:20:04;5.50;;;3.25;;
43809;SDS011;29440;48.208;11.162;2024-03-22T10:22:37;5.93;;;3.58;;
43809;SDS011;29440;48.208;11.162;2024-03-22T10:25:06;6.57;;;3.58;;
43809;SDS011;29440;48.208;11.162;2024-03-22T10:27:32;5.70;;;3.47;;
43809;SDS011;29440;48.208;11.162;2024-03-22T10:29:59;4.88;;;3.22;;
43809;SDS011;29440;48.208;11.162;2024-03-22T10:32:26;5.50;;;3.17;;
43809;SDS011;29440;48.208;11.162;2024-03-22T10:34:55;6.57;;;3.33;;
43809;SDS011;29440;48.208;11.162;2024-03-22T10:37:21;8.15;;;3.63;;
43809;SDS011;29440;48.208;11.162;2024-03-22T10:39:48;7.65;;;3.50;;
43809;SDS011;29440;48.208;11.162;2024-03-22T10:42:17;5.05;;;3.17;;
43809;SDS011;29440;48.208;11.162;2024-03-22T10:44:43;8.57;;;3.33;;
43809;SDS011;29440;48.208;11.162;2024-03-22T10:47:09;5.00;;;3.45;;
43809;SDS011;29440;48.208;11.162;2024-03-22T10:49:36;5.88;;;3.88;;
43809;SDS011;29440;48.208;11.162;2024-03-22T10:52:03;5.60;;;3.50;;
43809;SDS011;29440;48.208;11.162;2024-03-22T10:54:35;4.00;;;3.00;;
43809;SDS011;29440;48.208;11.162;2024-03-22T10:57:05;5.53;;;2.70;;
43809;SDS011;29440;48.208;11.162;2024-03-22T10:59:36;6.82;;;3.22;;
43809;SDS011;29440;48.208;11.162;2024-03-22T11:02:03;7.47;;;3.55;;
43809;SDS011;29440;48.208;11.162;2024-03-22T11:04:29;6.40;;;3.45;;
43809;SDS011;29440;48.208;11.162;2024-03-22T11:06:56;9.27;;;3.95;;
43809;SDS011;29440;48.208;11.162;2024-03-22T11:09:26;7.15;;;4.45;;
43809;SDS011;29440;48.208;11.162;2024-03-22T11:11:52;6.60;;;3.85;;
43809;SDS011;29440;48.208;11.162;2024-03-22T11:14:18;6.32;;;3.75;;
43809;SDS011;29440;48.208;11.162;2024-03-22T11:16:48;6.03;;;3.92;;
43809;SDS011;29440;48.208;11.162;2024-03-22T11:19:14;6.55;;;4.03;;
43809;SDS011;29440;48.208;11.162;2024-03-22T11:21:39;7.40;;;3.78;;
43809;SDS011;29440;48.208;11.162;2024-03-22T11:24:05;6.38;;;3.35;;
43809;SDS011;29440;48.208;11.162;2024-03-22T11:26:31;6.63;;;3.95;;
43809;SDS011;29440;48.208;11.162;2024-03-22T11:28:58;11.18;;;3.60;;
43809;SDS011;29440;48.208;11.162;2024-03-22T11:31:24;7.72;;;3.47;;
43809;SDS011;29440;48.208;11.162;2024-03-22T11:33:52;6.25;;;3.40;;
43809;SDS011;29440;48.208;11.162;2024-03-22T11:36:18;7.45;;;3.17;;
43809;SDS011;29440;48.208;11.162;2024-03-22T11:38:54;5.20;;;2.97;;
43809;SDS011;29440;48.208;11.162;2024-03-22T11:41:22;7.18;;;3.55;;
43809;SDS011;29440;48.208;11.162;2024-03-22T11:43:53;4.20;;;3.50;;
43809;SDS011;29440;48.208;11.162;2024-03-22T11:46:20;7.75;;;3.50;;
43809;SDS011;29440;48.208;11.162;2024-03-22T11:48:58;6.82;;;3.85;;
43809;SDS011;29440;48.208;11.162;2024-03-22T11:51:33;5.43;;;2.80;;
43809;SDS011;29440;48.208;11.162;2024-03-22T11:53:59;4.45;;;3.08;;
43809;SDS011;29440;48.208;11.162;2024-03-22T11:56:29;7.72;;;2.88;;
43809;SDS011;29440;48.208;11.162;2024-03-22T11:58:59;6.30;;;2.65;;
43809;SDS011;29440;48.208;11.162;2024-03-22T12:01:26;5.35;;;3.10;;
43809;SDS011;29440;48.208;11.162;2024-03-22T12:03:53;5.78;;;2.88;;
43809;SDS011;29440;48.208;11.162;2024-03-22T12:06:20;4.22;;;2.58;;
43809;SDS011;29440;48.208;11.162;2024-03-22T12:08:45;5.03;;;2.38;;
43809;SDS011;29440;48.208;11.162;2024-03-22T12:11:11;4.97;;;2.10;;
43809;SDS011;29440;48.208;11.162;2024-03-22T12:13:40;5.78;;;2.10;;
43809;SDS011;29440;48.208;11.162;2024-03-22T12:16:05;4.30;;;2.45;;
43809;SDS011;29440;48.208;11.162;2024-03-22T12:18:32;4.47;;;2.33;;
43809;SDS011;29440;48.208;11.162;2024-03-22T12:23:56;3.65;;;2.22;;
43809;SDS011;29440;48.208;11.162;2024-03-22T12:26:22;3.25;;;2.08;;
43809;SDS011;29440;48.208;11.162;2024-03-22T12:28:48;3.60;;;1.83;;
43809;SDS011;29440;48.208;11.162;2024-03-22T12:31:13;5.88;;;2.00;;
43809;SDS011;29440;48.208;11.162;2024-03-22T12:33:41;3.78;;;1.65;;
43809;SDS011;29440;48.208;11.162;2024-03-22T12:38:37;5.88;;;2.42;;
43809;SDS011;29440;48.208;11.162;2024-03-22T12:41:02;3.50;;;1.95;;
43809;SDS011;29440;48.208;11.162;2024-03-22T12:43:28;3.10;;;2.05;;
43809;SDS011;29440;48.208;11.162;2024-03-22T12:45:53;3.85;;;2.58;;
43809;SDS011;29440;48.208;11.162;2024-03-22T12:48:28;3.72;;;2.63;;
43809;SDS011;29440;48.208;11.162;2024-03-22T12:50:53;2.95;;;1.92;;
43809;SDS011;29440;48.208;11.162;2024-03-22T12:53:21;4.75;;;1.75;;
43809;SDS011;29440;48.208;11.162;2024-03-22T12:55:47;3.70;;;2.50;;
43809;SDS011;29440;48.208;11.162;2024-03-22T12:58:13;5.28;;;2.47;;
43809;SDS011;29440;48.208;11.162;2024-03-22T13:00:38;4.97;;;2.63;;
43809;SDS011;29440;48.208;11.162;2024-03-22T13:03:04;6.50;;;2.60;;
43809;SDS011;29440;48.208;11.162;2024-03-22T13:05:30;3.58;;;2.47;;
43809;SDS011;29440;48.208;11.162;2024-03-22T13:07:56;4.05;;;2.38;;
43809;SDS011;29440;48.208;11.162;2024-03-22T13:10:22;4.03;;;2.33;;
43809;SDS011;29440;48.208;11.162;2024-03-22T13:12:47;5.82;;;2.80;;
43809;SDS011;29440;48.208;11.162;2024-03-22T13:15:13;4.97;;;2.22;;
43809;SDS011;29440;48.208;11.162;2024-03-22T13:17:39;2.97;;;2.22;;
43809;SDS011;29440;48.208;11.162;2024-03-22T13:20:05;2.88;;;2.30;;
43809;SDS011;29440;48.208;11.162;2024-03-22T13:22:36;4.63;;;2.20;;
43809;SDS011;29440;48.208;11.162;2024-03-22T13:25:02;5.28;;;2.70;;
43809;SDS011;29440;48.208;11.162;2024-03-22T13:27:31;3.58;;;2.53;;
43809;SDS011;29440;48.208;11.162;2024-03-22T13:29:58;3.30;;;2.15;;
43809;SDS011;29440;48.208;11.162;2024-03-22T13:32:25;2.20;;;1.60;;
43809;SDS011;29440;48.208;11.162;2024-03-22T13:40:21;3.25;;;1.92;;
43809;SDS011;29440;48.208;11.162;2024-03-22T13:42:46;2.95;;;1.98;;
43809;SDS011;29440;48.208;11.162;2024-03-22T13:45:12;3.15;;;2.03;;
43809;SDS011;29440;48.208;11.162;2024-03-22T13:47:38;2.95;;;2.35;;
43809;SDS011;29440;48.208;11.162;2024-03-22T13:50:14;5.72;;;2.28;;
43809;SDS011;29440;48.208;11.162;2024-03-22T13:52:40;5.13;;;2.03;;
43809;SDS011;29440;48.208;11.162;2024-03-22T13:55:05;3.60;;;1.98;;
43809;SDS011;29440;48.208;11.162;2024-03-22T13:57:31;3.00;;;1.70;;
43809;SDS011;29440;48.208;11.162;2024-03-22T13:59:58;3.33;;;1.60;;
43809;SDS011;29440;48.208;11.162;2024-03-22T14:02:24;4.00;;;1.63;;
43809;SDS011;29440;48.208;11.162;2024-03-22T14:04:49;5.72;;;2.05;;
43809;SDS011;29440;48.208;11.162;2024-03-22T14:07:15;3.17;;;1.67;;
43809;SDS011;29440;48.208;11.162;2024-03-22T14:09:40;3.50;;;1.85;;
43809;SDS011;29440;48.208;11.162;2024-03-22T14:12:08;3.38;;;2.15;;
43809;SDS011;29440;48.208;11.162;2024-03-22T14:14:33;4.75;;;2.22;;
43809;SDS011;29440;48.208;11.162;2024-03-22T14:16:59;3.67;;;1.65;;
43809;SDS011;29440;48.208;11.162;2024-03-22T14:19:24;4.13;;;2.15;;
43809;SDS011;29440;48.208;11.162;2024-03-22T14:21:50;2.65;;;1.63;;
43809;SDS011;29440;48.208;11.162;2024-03-22T14:24:15;4.20;;;1.90;;
43809;SDS011;29440;48.208;11.162;2024-03-22T14:26:41;2.72;;;1.80;;
43809;SDS011;29440;48.208;11.162;2024-03-22T14:29:11;2.92;;;1.50;;
43809;SDS011;29440;48.208;11.162;2024-03-22T14:31:37;3.42;;;1.85;;
43809;SDS011;29440;48.208;11.162;2024-03-22T14:34:04;2.45;;;1.42;;